createdAt,value
2022-11-01T00:01:54.770Z,117.87
2022-11-01T00:04:23.070Z,120.40
2022-11-01T00:06:51.478Z,114.77
2022-11-01T00:09:19.846Z,118.40
2022-11-01T00:11:49.523Z,121.70
2022-11-01T00:14:19.360Z,115.63
2022-11-01T00:16:47.697Z,117.63
2022-11-01T00:19:16.044Z,114.77
2022-11-01T00:21:43.968Z,117.60
2022-11-01T00:24:12.292Z,116.07
2022-11-01T00:26:40.497Z,115.10
2022-11-01T00:29:09.925Z,114.70
2022-11-01T00:31:37.862Z,113.13
2022-11-01T00:34:06.930Z,118.50
2022-11-01T00:36:35.462Z,116.77
2022-11-01T00:39:04.353Z,116.07
2022-11-01T00:41:32.475Z,114.37
2022-11-01T00:44:00.577Z,117.40
2022-11-01T00:46:30.671Z,116.37
2022-11-01T00:48:58.639Z,116.03
2022-11-01T00:51:27.080Z,119.90
2022-11-01T00:53:54.983Z,120.70
2022-11-01T00:56:22.936Z,116.97
2022-11-01T00:58:50.881Z,115.27
2022-11-01T01:01:18.963Z,115.83
2022-11-01T01:03:48.372Z,120.07
2022-11-01T01:06:16.324Z,119.33
2022-11-01T01:08:44.456Z,118.83
2022-11-01T01:11:12.442Z,117.20
2022-11-01T01:13:40.481Z,119.33
2022-11-01T01:16:09.935Z,116.17
2022-11-01T01:18:38.670Z,116.70
2022-11-01T01:21:08.593Z,116.63
2022-11-01T01:23:36.959Z,114.33
2022-11-01T01:26:07.480Z,114.57
2022-11-01T01:28:40.117Z,108.63
2022-11-01T01:31:12.812Z,108.00
2022-11-01T01:33:40.809Z,109.13
2022-11-01T01:36:10.522Z,107.57
2022-11-01T01:38:38.526Z,103.87
2022-11-01T01:41:24.177Z,104.30
2022-11-01T01:43:52.392Z,106.30
2022-11-01T01:46:20.446Z,104.97
2022-11-01T01:48:54.540Z,103.63
2022-11-01T01:51:28.808Z,101.10
2022-11-01T01:53:58.449Z,103.60
2022-11-01T01:56:32.684Z,98.20
2022-11-01T01:59:05.277Z,99.97
2022-11-01T02:01:35.332Z,98.60
2022-11-01T02:04:04.724Z,100.17
2022-11-01T02:06:36.652Z,100.93
2022-11-01T02:09:07.866Z,99.67
2022-11-01T02:11:36.375Z,98.83
2022-11-01T02:14:04.919Z,100.03
2022-11-01T02:16:48.345Z,95.83
2022-11-01T02:20:04.555Z,99.83
2022-11-01T02:22:52.096Z,97.43
2022-11-01T02:25:36.793Z,94.87
2022-11-01T02:28:23.459Z,92.53
2022-11-01T02:31:04.690Z,91.53
2022-11-01T02:33:40.457Z,88.13
2022-11-01T02:36:15.997Z,84.70
2022-11-01T02:38:50.086Z,85.33
2022-11-01T02:41:23.302Z,82.50
2022-11-01T02:43:56.071Z,83.40
2022-11-01T02:46:43.361Z,82.27
2022-11-01T02:49:16.887Z,84.40
2022-11-01T02:51:46.405Z,83.10
2022-11-01T02:54:21.876Z,81.47
2022-11-01T02:56:50.475Z,82.53
2022-11-01T02:59:25.049Z,81.63
2022-11-01T03:02:00.301Z,83.47
2022-11-01T03:04:29.735Z,86.57
2022-11-01T03:07:01.694Z,81.47
2022-11-01T03:09:30.394Z,85.07
2022-11-01T03:12:03.318Z,85.23
2022-11-01T03:14:39.723Z,84.37
2022-11-01T03:17:12.533Z,85.90
2022-11-01T03:19:48.975Z,94.83
2022-11-01T03:22:21.339Z,98.00
2022-11-01T03:24:53.322Z,96.53
2022-11-01T03:27:27.787Z,100.03
2022-11-01T03:30:03.070Z,98.33
2022-11-01T03:32:37.513Z,98.33
2022-11-01T03:35:11.555Z,100.10
2022-11-01T03:37:42.209Z,92.87
2022-11-01T03:40:14.163Z,99.10
2022-11-01T03:42:44.877Z,98.23
2022-11-01T03:45:15.809Z,101.03
2022-11-01T03:47:44.200Z,99.50
2022-11-01T03:50:17.632Z,103.70
2022-11-01T03:52:45.940Z,106.13
2022-11-01T03:55:20.581Z,105.17
2022-11-01T03:57:50.033Z,104.27
2022-11-01T04:00:20.394Z,98.87
2022-11-01T04:02:48.495Z,124.10
2022-11-01T04:05:18.527Z,111.17
2022-11-01T04:07:46.721Z,108.47
2022-11-01T04:10:15.659Z,327.77
2022-11-01T04:12:46.936Z,110.30
2022-11-01T04:15:32.932Z,107.73
2022-11-01T04:18:23.444Z,124.97
2022-11-01T04:20:54.173Z,109.53
2022-11-01T04:23:22.264Z,125.43
2022-11-01T04:25:50.423Z,103.13
2022-11-01T04:28:18.400Z,130.07
2022-11-01T04:30:46.373Z,161.40
2022-11-01T04:33:14.380Z,138.23
2022-11-01T04:35:42.497Z,148.90
2022-11-01T04:38:13.025Z,242.00
2022-11-01T04:40:41.652Z,119.30
2022-11-01T04:43:09.703Z,130.00
2022-11-01T04:45:37.643Z,131.13
2022-11-01T04:48:07.322Z,122.27
2022-11-01T04:50:36.497Z,198.93
2022-11-01T04:53:04.805Z,184.27
2022-11-01T04:55:34.853Z,124.97
2022-11-01T04:58:03.234Z,163.77
2022-11-01T05:00:33.123Z,136.93
2022-11-01T05:03:03.867Z,144.53
2022-11-01T05:05:32.424Z,137.70
2022-11-01T05:10:37.573Z,142.97
2022-11-01T05:13:06.492Z,141.80
2022-11-01T05:15:40.087Z,121.23
2022-11-01T05:18:11.869Z,132.23
2022-11-01T05:20:39.836Z,132.83
2022-11-01T05:23:07.883Z,122.67
2022-11-01T05:25:38.368Z,386.17
2022-11-01T05:28:08.792Z,117.77
2022-11-01T05:30:38.259Z,115.70
2022-11-01T05:33:07.686Z,302.83
2022-11-01T05:35:37.166Z,124.00
2022-11-01T05:38:06.134Z,161.27
2022-11-01T05:40:34.250Z,172.27
2022-11-01T05:43:04.186Z,178.97
2022-11-01T05:45:32.620Z,122.63
2022-11-01T05:48:03.589Z,124.20
2022-11-01T05:50:31.976Z,140.93
2022-11-01T05:53:08.492Z,120.70
2022-11-01T05:55:37.159Z,119.20
2022-11-01T05:58:07.401Z,114.53
2022-11-01T06:00:35.979Z,112.77
2022-11-01T06:03:04.765Z,178.03
2022-11-01T06:05:33.835Z,110.70
2022-11-01T06:08:03.117Z,105.80
2022-11-01T06:10:31.324Z,106.40
2022-11-01T06:12:59.604Z,273.00
2022-11-01T06:15:29.321Z,169.97
2022-11-01T06:17:58.436Z,107.20
2022-11-01T06:20:26.974Z,107.90
2022-11-01T06:22:55.111Z,208.37
2022-11-01T06:25:23.853Z,145.30
2022-11-01T06:27:51.767Z,324.07
2022-11-01T06:30:19.908Z,300.90
2022-11-01T06:32:49.269Z,196.40
2022-11-01T06:35:17.562Z,308.50
2022-11-01T06:37:46.813Z,195.67
2022-11-01T06:40:14.793Z,188.07
2022-11-01T06:42:46.569Z,201.23
2022-11-01T06:45:15.034Z,119.53
2022-11-01T06:47:49.047Z,178.00
2022-11-01T06:50:17.097Z,148.40
2022-11-01T06:52:45.026Z,139.87
2022-11-01T06:55:12.984Z,214.57
2022-11-01T06:57:41.084Z,100.70
2022-11-01T07:00:10.317Z,125.43
2022-11-01T07:02:38.332Z,83.10
2022-11-01T07:05:08.865Z,152.27
2022-11-01T07:07:36.939Z,160.90
2022-11-01T07:10:05.513Z,135.90
2022-11-01T07:12:33.439Z,280.17
2022-11-01T07:15:01.450Z,415.30
2022-11-01T07:17:29.419Z,306.17
2022-11-01T07:19:57.501Z,121.33
2022-11-01T07:22:26.833Z,422.73
2022-11-01T07:24:54.809Z,136.97
2022-11-01T07:27:22.851Z,151.37
2022-11-01T07:29:50.767Z,108.03
2022-11-01T07:32:18.728Z,137.07
2022-11-01T07:34:46.635Z,96.13
2022-11-01T07:37:14.658Z,99.70
2022-11-01T07:39:44.022Z,90.37
2022-11-01T07:42:12.069Z,87.60
2022-11-01T07:44:39.999Z,83.80
2022-11-01T07:47:08.027Z,85.03
2022-11-01T07:49:35.997Z,115.87
2022-11-01T07:52:04.291Z,154.77
2022-11-01T07:54:32.218Z,96.53
2022-11-01T07:57:01.548Z,158.10
2022-11-01T07:59:29.621Z,88.77
2022-11-01T08:01:57.606Z,91.57
2022-11-01T08:04:25.588Z,103.53
2022-11-01T08:06:53.579Z,86.13
2022-11-01T08:09:23.049Z,321.83
2022-11-01T08:11:51.547Z,87.67
2022-11-01T08:14:20.856Z,89.40
2022-11-01T08:16:50.220Z,110.90
2022-11-01T08:19:18.186Z,83.97
2022-11-01T08:21:46.136Z,103.87
2022-11-01T08:24:14.150Z,84.00
2022-11-01T08:26:42.104Z,103.13
2022-11-01T08:29:10.105Z,188.37
2022-11-01T08:31:42.168Z,94.50
2022-11-01T08:34:14.552Z,104.67
2022-11-01T08:36:44.701Z,104.20
2022-11-01T08:39:13.023Z,99.40
2022-11-01T08:41:40.935Z,99.87
2022-11-01T08:44:09.551Z,103.37
2022-11-01T08:46:37.586Z,99.97
2022-11-01T08:49:06.896Z,101.23
2022-11-01T08:51:35.110Z,99.60
2022-11-01T08:54:05.159Z,100.60
2022-11-01T08:56:33.254Z,97.87
2022-11-01T08:59:01.351Z,93.97
2022-11-01T09:01:29.455Z,89.53
2022-11-01T09:03:58.473Z,88.63
2022-11-01T09:06:33.678Z,85.30
2022-11-01T09:09:04.337Z,86.60
2022-11-01T09:11:32.328Z,86.83
2022-11-01T09:14:01.315Z,86.77
2022-11-01T09:16:29.478Z,85.53
2022-11-01T09:19:01.615Z,81.80
2022-11-01T09:21:32.203Z,78.73
2022-11-01T09:24:00.447Z,74.03
2022-11-01T09:26:28.510Z,72.23
2022-11-01T09:28:58.583Z,70.80
2022-11-01T09:31:28.612Z,67.90
2022-11-01T09:33:57.515Z,65.60
2022-11-01T09:36:26.615Z,62.57
2022-11-01T09:38:56.318Z,61.20
2022-11-01T09:41:32.876Z,59.23
2022-11-01T09:44:04.321Z,59.10
2022-11-01T09:46:37.497Z,58.53
2022-11-01T09:49:07.213Z,53.97
2022-11-01T09:51:35.337Z,55.43
2022-11-01T09:54:04.770Z,51.83
2022-11-01T09:56:41.691Z,49.93
2022-11-01T09:59:22.223Z,47.87
2022-11-01T10:02:05.827Z,47.80
2022-11-01T10:04:59.375Z,48.43
2022-11-01T10:07:37.910Z,45.20
2022-11-01T10:10:18.931Z,45.43
2022-11-01T10:12:59.375Z,44.30
2022-11-01T10:15:39.597Z,41.70
2022-11-01T10:18:20.806Z,40.57
2022-11-01T10:20:49.556Z,40.60
2022-11-01T10:23:19.956Z,37.37
2022-11-01T10:25:54.804Z,37.33
2022-11-01T10:28:31.470Z,35.90
2022-11-01T10:31:04.472Z,35.85
2022-11-01T10:33:36.234Z,32.30
2022-11-01T10:36:07.402Z,31.67
2022-11-01T10:41:36.894Z,32.77
2022-11-01T10:44:12.187Z,32.38
2022-11-01T10:46:43.708Z,33.27
2022-11-01T10:49:24.402Z,31.73
2022-11-01T10:51:56.416Z,32.30
2022-11-01T10:54:29.563Z,33.00
2022-11-01T10:57:03.828Z,32.83
2022-11-01T10:59:36.650Z,32.67
2022-11-01T11:02:14.438Z,33.92
2022-11-01T11:04:43.068Z,31.10
2022-11-01T11:07:16.487Z,30.63
2022-11-01T11:09:50.245Z,30.10
2022-11-01T11:12:22.451Z,31.42
2022-11-01T11:14:54.519Z,29.63
2022-11-01T11:17:26.075Z,30.43
2022-11-01T11:19:54.333Z,29.65
2022-11-01T11:22:23.436Z,32.65
2022-11-01T11:24:52.870Z,30.52
2022-11-01T11:27:25.076Z,31.35
2022-11-01T11:29:56.493Z,30.93
2022-11-01T11:32:27.005Z,30.05
2022-11-01T11:34:58.414Z,30.40
2022-11-01T11:37:30.144Z,28.98
2022-11-01T11:40:20.852Z,29.33
2022-11-01T11:42:51.957Z,28.38
2022-11-01T11:45:29.526Z,27.55
2022-11-01T11:47:58.740Z,27.95
2022-11-01T11:50:33.488Z,24.27
2022-11-01T11:53:10.069Z,22.77
2022-11-01T11:55:43.747Z,20.98
2022-11-01T11:58:24.355Z,19.45
2022-11-01T12:00:59.891Z,18.98
2022-11-01T12:03:29.118Z,20.05
2022-11-01T12:06:06.762Z,19.83
2022-11-01T12:08:44.981Z,19.08
2022-11-01T12:11:13.573Z,19.02
2022-11-01T12:13:45.286Z,18.00
2022-11-01T12:16:22.359Z,18.52
2022-11-01T12:18:53.385Z,18.90
2022-11-01T12:21:27.876Z,18.88
2022-11-01T12:24:00.796Z,19.52
2022-11-01T12:26:31.852Z,20.10
2022-11-01T12:29:07.797Z,19.08
2022-11-01T12:31:37.012Z,18.25
2022-11-01T12:34:12.867Z,18.10
2022-11-01T12:36:46.307Z,19.95
2022-11-01T12:39:30.391Z,19.77
2022-11-01T12:41:59.480Z,18.83
2022-11-01T12:44:35.899Z,18.27
2022-11-01T12:47:09.247Z,19.10
2022-11-01T12:49:45.523Z,20.02
2022-11-01T12:52:20.259Z,20.05
2022-11-01T12:55:04.288Z,20.55
2022-11-01T12:57:33.301Z,20.25
2022-11-01T13:00:04.413Z,20.38
2022-11-01T13:03:07.810Z,19.95
2022-11-01T13:05:48.839Z,18.73
2022-11-01T13:08:24.331Z,19.35
2022-11-01T13:10:52.914Z,18.73
2022-11-01T13:13:26.943Z,17.02
2022-11-01T13:16:04.358Z,17.13
2022-11-01T13:18:45.043Z,17.58
2022-11-01T13:21:19.912Z,17.40
2022-11-01T13:23:53.984Z,16.52
2022-11-01T13:26:26.718Z,16.50
2022-11-01T13:29:04.086Z,16.70
2022-11-01T13:31:44.889Z,17.35
2022-11-01T13:34:27.428Z,16.73
2022-11-01T13:37:01.771Z,16.95
2022-11-01T13:39:38.425Z,14.82
2022-11-01T13:42:12.626Z,14.73
2022-11-01T13:44:45.178Z,17.90
2022-11-01T13:47:47.202Z,14.82
2022-11-01T13:50:41.246Z,11.27
2022-11-01T13:53:17.394Z,12.68
2022-11-01T13:55:50.881Z,8.43
2022-11-01T13:58:20.188Z,8.30
2022-11-01T14:00:50.532Z,8.45
2022-11-01T14:03:24.351Z,8.13
2022-11-01T14:09:37.600Z,8.80
2022-11-01T14:12:28.720Z,8.75
2022-11-01T14:15:11.762Z,8.52
2022-11-01T14:18:07.455Z,8.95
2022-11-01T14:20:51.649Z,8.63
2022-11-01T14:24:00.544Z,11.48
2022-11-01T14:26:50.809Z,9.38
2022-11-01T14:29:19.243Z,9.20
2022-11-01T14:31:49.640Z,9.48
2022-11-01T14:34:31.885Z,9.30
2022-11-01T14:37:11.516Z,9.05
2022-11-01T14:39:44.703Z,9.70
2022-11-01T14:42:19.809Z,9.98
2022-11-01T14:44:52.686Z,9.57
2022-11-01T14:47:31.874Z,9.77
2022-11-01T14:50:04.000Z,10.55
2022-11-01T14:52:40.848Z,9.90
2022-11-01T14:55:18.361Z,11.05
2022-11-01T14:57:48.511Z,10.88
2022-11-01T15:00:23.097Z,11.02
2022-11-01T15:02:51.881Z,11.65
2022-11-01T15:05:19.965Z,11.82
2022-11-01T15:07:54.117Z,12.10
2022-11-01T15:10:23.046Z,12.23
2022-11-01T15:12:54.159Z,13.00
2022-11-01T15:15:24.422Z,12.20
2022-11-01T15:17:55.631Z,12.90
2022-11-01T15:20:27.500Z,13.37
2022-11-01T15:22:58.568Z,13.30
2022-11-01T15:25:27.973Z,13.40
2022-11-01T15:27:58.170Z,13.97
2022-11-01T15:30:28.516Z,14.23
2022-11-01T15:33:15.230Z,14.37
2022-11-01T15:35:43.829Z,15.90
2022-11-01T15:38:20.842Z,15.03
2022-11-01T15:40:50.457Z,14.50
2022-11-01T15:43:21.086Z,15.20
2022-11-01T15:45:53.702Z,16.10
2022-11-01T15:48:24.678Z,16.10
2022-11-01T15:50:56.805Z,16.67
2022-11-01T15:53:29.299Z,17.83
2022-11-01T15:56:02.634Z,16.77
2022-11-01T15:58:35.109Z,17.83
2022-11-01T16:01:10.458Z,18.83
2022-11-01T16:03:43.056Z,18.10
2022-11-01T16:06:15.786Z,18.53
2022-11-01T16:08:52.426Z,20.10
2022-11-01T16:11:23.494Z,19.77
2022-11-01T16:13:57.236Z,19.80
2022-11-01T16:16:25.385Z,19.50
2022-11-01T16:18:54.957Z,20.60
2022-11-01T16:21:29.669Z,20.20
2022-11-01T16:24:11.522Z,20.87
2022-11-01T16:26:53.840Z,19.97
2022-11-01T16:29:41.275Z,21.23
2022-11-01T16:32:19.301Z,22.77
2022-11-01T16:34:47.879Z,22.83
2022-11-01T16:37:23.798Z,24.30
2022-11-01T16:39:53.813Z,24.03
2022-11-01T16:42:23.072Z,23.73
2022-11-01T16:44:56.076Z,24.40
2022-11-01T16:47:24.615Z,24.60
2022-11-01T16:49:55.105Z,25.90
2022-11-01T16:52:23.349Z,26.60
2022-11-01T16:54:52.083Z,26.43
2022-11-01T16:57:26.177Z,27.03
2022-11-01T16:59:55.592Z,27.33
2022-11-01T17:02:26.778Z,29.93
2022-11-01T17:04:58.586Z,28.67
2022-11-01T17:07:27.681Z,28.10
2022-11-01T17:09:57.961Z,29.40
2022-11-01T17:12:27.443Z,29.83
2022-11-01T17:14:56.121Z,29.23
2022-11-01T17:17:27.447Z,30.87
2022-11-01T17:19:59.669Z,32.13
2022-11-01T17:22:35.243Z,31.83
2022-11-01T17:25:04.314Z,34.10
2022-11-01T17:27:33.882Z,34.60
2022-11-01T17:30:03.338Z,34.73
2022-11-01T17:32:31.360Z,36.33
2022-11-01T17:35:00.282Z,35.17
2022-11-01T17:37:32.252Z,35.53
2022-11-01T17:40:01.955Z,35.23
2022-11-01T17:42:29.991Z,36.27
2022-11-01T17:44:59.545Z,36.10
2022-11-01T17:47:27.497Z,36.47
2022-11-01T17:49:55.557Z,36.47
2022-11-01T17:52:23.632Z,38.23
2022-11-01T17:54:51.697Z,36.90
2022-11-01T17:57:19.715Z,38.47
2022-11-01T17:59:47.694Z,39.67
2022-11-01T18:02:17.188Z,37.63
2022-11-01T18:04:45.626Z,39.70
2022-11-01T18:07:13.813Z,40.17
2022-11-01T18:09:41.844Z,41.47
2022-11-01T18:12:15.257Z,40.70
2022-11-01T18:17:38.875Z,43.63
2022-11-01T18:20:16.342Z,43.40
2022-11-01T18:22:50.478Z,43.67
2022-11-01T18:25:28.262Z,45.30
2022-11-01T18:28:00.250Z,44.90
2022-11-01T18:30:29.280Z,46.63
2022-11-01T18:33:04.097Z,47.23
2022-11-01T18:35:37.572Z,47.53
2022-11-01T18:38:25.961Z,48.03
2022-11-01T18:41:00.336Z,51.27
2022-11-01T18:43:32.025Z,51.27
2022-11-01T18:48:49.809Z,51.90
2022-11-01T18:51:23.005Z,52.47
2022-11-01T18:53:55.926Z,53.13
2022-11-01T18:56:25.730Z,52.97
2022-11-01T18:58:55.384Z,52.93
2022-11-01T19:01:31.934Z,53.30
2022-11-01T19:04:07.595Z,54.03
2022-11-01T19:06:35.748Z,55.30
2022-11-01T19:09:24.211Z,53.87
2022-11-01T19:11:58.364Z,56.93
2022-11-01T19:14:27.399Z,58.77
2022-11-01T19:16:56.497Z,59.03
2022-11-01T19:19:26.038Z,61.70
2022-11-01T19:21:59.600Z,61.30
2022-11-01T19:24:33.422Z,62.30
2022-11-01T19:27:03.084Z,60.13
2022-11-01T19:29:35.057Z,62.10
2022-11-01T19:32:05.547Z,61.90
2022-11-01T19:34:38.721Z,60.87
2022-11-01T19:37:20.956Z,62.60
2022-11-01T19:39:49.597Z,63.17
2022-11-01T19:42:26.304Z,63.47
2022-11-01T19:44:58.204Z,64.77
2022-11-01T19:47:40.361Z,63.23
2022-11-01T19:50:28.812Z,64.70
2022-11-01T19:52:59.020Z,64.67
2022-11-01T19:55:38.334Z,63.73
2022-11-01T19:58:26.321Z,64.00
2022-11-01T20:01:04.450Z,64.10
2022-11-01T20:03:39.479Z,64.67
2022-11-01T20:06:16.093Z,65.43
2022-11-01T20:08:45.388Z,64.80
2022-11-01T20:11:13.607Z,64.17
2022-11-01T20:13:41.808Z,64.77
2022-11-01T20:16:09.942Z,65.00
2022-11-01T20:18:37.969Z,65.47
2022-11-01T20:21:06.396Z,66.90
2022-11-01T20:23:36.355Z,64.60
2022-11-01T20:26:04.955Z,66.03
2022-11-01T20:28:33.605Z,66.70
2022-11-01T20:31:01.598Z,67.17
2022-11-01T20:33:29.679Z,66.30
2022-11-01T20:35:57.734Z,66.37
2022-11-01T20:38:25.790Z,66.13
2022-11-01T20:40:55.200Z,66.70
2022-11-01T20:43:24.040Z,68.80
2022-11-01T20:45:52.132Z,68.83
2022-11-01T20:48:20.516Z,69.00
2022-11-01T20:50:48.609Z,68.50
2022-11-01T20:53:16.916Z,67.23
2022-11-01T20:55:45.303Z,67.93
2022-11-01T20:58:15.130Z,67.90
2022-11-01T21:00:43.171Z,67.83
2022-11-01T21:03:15.639Z,69.27
2022-11-01T21:05:44.764Z,69.03
2022-11-01T21:08:22.428Z,67.73
2022-11-01T21:10:56.432Z,67.87
2022-11-01T21:13:28.329Z,68.27
2022-11-01T21:15:58.023Z,69.00
2022-11-01T21:18:33.828Z,68.53
2022-11-01T21:21:31.643Z,69.13
2022-11-01T21:24:01.291Z,68.37
2022-11-01T21:26:32.652Z,68.10
2022-11-01T21:29:16.598Z,68.47
2022-11-01T21:31:44.580Z,66.00
2022-11-01T21:34:24.272Z,67.37
2022-11-01T21:36:52.628Z,67.67
2022-11-01T21:39:22.697Z,67.93
2022-11-01T21:41:52.633Z,66.37
2022-11-01T21:44:25.965Z,69.17
2022-11-01T21:46:56.164Z,68.43
2022-11-01T21:49:27.669Z,69.93
2022-11-01T21:51:58.850Z,72.73
2022-11-01T21:54:34.043Z,71.20
2022-11-01T21:57:02.928Z,73.17
2022-11-01T21:59:32.843Z,74.10
2022-11-01T22:02:02.066Z,75.83
2022-11-01T22:04:31.586Z,75.17
2022-11-01T22:07:00.736Z,75.33
2022-11-01T22:09:29.161Z,78.50
2022-11-01T22:11:57.538Z,79.70
2022-11-01T22:14:25.940Z,77.87
2022-11-01T22:16:55.449Z,79.00
2022-11-01T22:19:23.535Z,78.57
2022-11-01T22:21:51.559Z,81.17
2022-11-01T22:24:19.671Z,80.87
2022-11-01T22:26:47.608Z,80.63
2022-11-01T22:29:15.647Z,81.20
2022-11-01T22:31:43.815Z,80.73
2022-11-01T22:34:13.514Z,83.30
2022-11-01T22:36:43.264Z,79.67
2022-11-01T22:39:18.143Z,79.70
2022-11-01T22:41:46.247Z,79.60
2022-11-01T22:44:16.055Z,77.97
2022-11-01T22:46:47.312Z,76.03
2022-11-01T22:49:23.609Z,76.00
2022-11-01T22:51:54.434Z,75.10
2022-11-01T22:54:30.799Z,73.40
2022-11-01T22:57:02.848Z,72.47
2022-11-01T22:59:34.152Z,70.50
2022-11-01T23:02:24.879Z,71.50
2022-11-01T23:04:59.221Z,69.83
2022-11-01T23:07:39.015Z,70.80
2022-11-01T23:10:21.855Z,67.30
2022-11-01T23:13:09.633Z,69.67
2022-11-01T23:15:37.732Z,69.90
2022-11-01T23:18:14.875Z,69.43
2022-11-01T23:20:44.994Z,69.03
2022-11-01T23:23:18.199Z,68.93
2022-11-01T23:25:46.485Z,67.03
2022-11-01T23:28:14.895Z,65.27
2022-11-01T23:30:44.019Z,63.87
2022-11-01T23:33:13.754Z,65.57
2022-11-01T23:35:42.462Z,64.50
2022-11-01T23:38:19.948Z,62.73
2022-11-01T23:40:48.164Z,65.00
2022-11-01T23:43:25.417Z,65.27
2022-11-01T23:45:53.945Z,64.23
2022-11-01T23:48:23.829Z,62.73
2022-11-01T23:50:54.324Z,63.57
2022-11-01T23:53:30.712Z,64.67
2022-11-01T23:56:00.320Z,64.47
2022-11-01T23:58:31.389Z,63.23
